Time;durP1;ratioP1;P1;durP2;ratioP2;P2;SDS_P1;SDS_P2;PMS_P1;PMS_P2;Temp;Humidity;BMP_temperature;BMP_pressure;BME280_temperature;BME280_humidity;BME280_pressure;Samples;Min_cycle;Max_cycle;Signal;HPM_P1;HPM_P2
2023/07/12 00:24:08;;;;;;;1.25;0.52;;;17.30;99.90;;;;;;5088531;28;20094;-64
2023/07/12 00:26:36;;;;;;;0.88;0.57;;;17.40;99.90;;;;;;5041761;28;20505;-64
2023/07/12 00:29:05;;;;;;;1.00;0.40;;;17.40;99.90;;;;;;5071445;28;20048;-64
2023/07/12 00:31:31;;;;;;;2.65;0.95;;;17.40;99.90;;;;;;5072084;28;20036;-64
2023/07/12 00:33:57;;;;;;;1.42;0.50;;;17.50;99.90;;;;;;5078932;28;20157;-64
2023/07/12 00:36:29;;;;;;;3.90;0.70;;;17.50;99.90;;;;;;5079031;28;20161;-64
2023/07/12 00:38:57;;;;;;;2.17;0.57;;;17.40;99.90;;;;;;5067601;28;20044;-64
2023/07/12 00:41:30;;;;;;;2.80;1.02;;;17.50;99.90;;;;;;5091488;28;20353;-64
2023/07/12 00:44:02;;;;;;;3.15;1.00;;;17.50;99.90;;;;;;5090301;28;20115;-64
2023/07/12 00:46:44;;;;;;;1.23;0.70;;;17.50;99.90;;;;;;5068567;28;20397;-64
2023/07/12 00:49:10;;;;;;;1.95;1.00;;;17.50;99.90;;;;;;5089979;28;20052;-64
2023/07/12 00:51:48;;;;;;;3.38;1.10;;;17.50;99.90;;;;;;5070267;28;20519;-64
2023/07/12 00:54:18;;;;;;;2.38;0.70;;;17.40;99.90;;;;;;5065524;28;20071;-64
2023/07/12 00:56:44;;;;;;;1.67;0.55;;;17.40;99.90;;;;;;5060310;28;20039;-64
2023/07/12 00:59:20;;;;;;;1.58;0.90;;;17.50;99.90;;;;;;5087779;28;20044;-64
2023/07/12 01:01:48;;;;;;;1.23;0.70;;;17.50;99.90;;;;;;5066521;28;20044;-64
2023/07/12 01:04:20;;;;;;;1.80;1.00;;;17.50;99.90;;;;;;5062865;28;20041;-64
2023/07/12 01:06:49;;;;;;;2.08;0.90;;;17.40;99.90;;;;;;5069943;28;20032;-64
2023/07/12 01:09:17;;;;;;;2.70;1.02;;;17.40;99.90;;;;;;5090018;28;20108;-64
2023/07/12 01:11:43;;;;;;;3.58;0.60;;;17.30;99.90;;;;;;5088465;28;20115;-64
2023/07/12 01:14:15;;;;;;;2.70;0.80;;;17.30;99.90;;;;;;5071526;28;20032;-64
2023/07/12 01:16:44;;;;;;;2.08;0.77;;;17.30;99.90;;;;;;5070618;28;20036;-64
2023/07/12 01:19:10;;;;;;;1.90;0.80;;;17.20;99.90;;;;;;5069617;28;20044;-64
2023/07/12 01:21:41;;;;;;;1.98;0.90;;;17.20;99.90;;;;;;5070017;28;20028;-64
2023/07/12 01:24:07;;;;;;;0.82;0.50;;;17.20;99.90;;;;;;5054695;28;20044;-64
2023/07/12 01:26:38;;;;;;;1.88;0.80;;;17.20;99.90;;;;;;5070411;28;20388;-64
2023/07/12 01:29:08;;;;;;;1.48;0.70;;;17.10;99.90;;;;;;5088549;28;20496;-64
2023/07/12 01:31:35;;;;;;;1.70;0.70;;;17.10;99.90;;;;;;5071049;28;20039;-64
2023/07/12 01:34:01;;;;;;;1.80;0.98;;;17.00;99.90;;;;;;5070939;28;20396;-64
2023/07/12 01:36:28;;;;;;;1.95;0.85;;;17.10;99.90;;;;;;5088625;28;20044;-64
2023/07/12 01:38:56;;;;;;;2.08;0.57;;;17.10;99.90;;;;;;5068955;28;20433;-64
2023/07/12 01:41:23;;;;;;;3.47;0.80;;;17.00;99.90;;;;;;5070628;28;20493;-63
2023/07/12 01:43:49;;;;;;;2.30;0.60;;;17.10;99.90;;;;;;5053991;28;20032;-64
2023/07/12 01:46:15;;;;;;;5.30;1.20;;;17.00;99.90;;;;;;5051068;28;20034;-64
2023/07/12 01:48:41;;;;;;;1.05;0.65;;;17.10;99.90;;;;;;5087658;28;20119;-64
2023/07/12 01:51:07;;;;;;;1.42;0.77;;;17.10;99.90;;;;;;5070692;28;20389;-64
2023/07/12 01:53:35;;;;;;;1.60;0.95;;;17.00;99.90;;;;;;5069028;28;20215;-64
2023/07/12 01:56:02;;;;;;;1.23;0.65;;;17.10;99.90;;;;;;5069828;28;20132;-64
2023/07/12 01:58:28;;;;;;;3.45;0.70;;;17.10;99.90;;;;;;5070498;28;20756;-64
2023/07/12 02:00:55;;;;;;;1.70;0.88;;;17.10;99.90;;;;;;5067980;28;20031;-64
2023/07/12 02:03:21;;;;;;;2.50;1.00;;;17.10;99.90;;;;;;5053767;28;20089;-64
2023/07/12 02:05:47;;;;;;;2.60;0.95;;;17.10;99.90;;;;;;5070847;28;20423;-64
2023/07/12 02:08:12;;;;;;;5.30;0.93;;;17.10;99.90;;;;;;5069932;28;20097;-64
2023/07/12 02:10:38;;;;;;;2.00;1.02;;;17.10;99.90;;;;;;5054694;28;20122;-64
2023/07/12 02:13:05;;;;;;;1.17;0.70;;;17.10;99.90;;;;;;5087926;28;20036;-64
2023/07/12 02:15:31;;;;;;;4.22;0.93;;;17.10;99.90;;;;;;5069948;28;20484;-64
2023/07/12 02:17:57;;;;;;;3.13;0.80;;;17.10;99.90;;;;;;5068459;28;20058;-64
2023/07/12 02:20:24;;;;;;;1.83;0.70;;;17.10;99.90;;;;;;5068834;28;20723;-64
2023/07/12 02:22:50;;;;;;;1.30;0.68;;;17.10;99.90;;;;;;5065201;28;21090;-64
2023/07/12 02:25:18;;;;;;;4.15;1.00;;;17.10;99.90;;;;;;5051388;28;20409;-64
2023/07/12 02:27:44;;;;;;;1.42;0.82;;;17.10;99.90;;;;;;5049274;28;20076;-65
2023/07/12 02:30:22;;;;;;;2.30;1.20;;;17.10;99.90;;;;;;5065524;28;20044;-64
2023/07/12 02:32:49;;;;;;;5.35;1.23;;;17.00;99.90;;;;;;5050153;28;20370;-65
2023/07/12 02:35:16;;;;;;;1.65;1.02;;;17.00;99.90;;;;;;5053223;28;20533;-65
2023/07/12 02:37:42;;;;;;;4.80;0.70;;;17.00;99.90;;;;;;5066784;28;20393;-65
2023/07/12 02:40:09;;;;;;;2.33;1.02;;;17.00;99.90;;;;;;5039280;28;20049;-65
2023/07/12 02:42:36;;;;;;;1.58;0.82;;;17.00;99.90;;;;;;5073836;28;20163;-65
2023/07/12 02:45:02;;;;;;;2.83;1.55;;;17.00;99.90;;;;;;5053518;28;20037;-65
2023/07/12 02:47:28;;;;;;;1.83;0.88;;;16.90;99.90;;;;;;5067266;28;20445;-64
2023/07/12 02:49:54;;;;;;;1.58;0.80;;;16.90;99.90;;;;;;5053900;28;20064;-64
2023/07/12 02:52:20;;;;;;;4.30;0.85;;;16.90;99.90;;;;;;5065512;28;20049;-64
2023/07/12 02:54:46;;;;;;;4.85;1.33;;;16.90;99.90;;;;;;5053257;28;20044;-64
2023/07/12 02:57:13;;;;;;;3.17;0.88;;;16.90;99.90;;;;;;5066467;28;20055;-65
2023/07/12 02:59:39;;;;;;;8.27;1.15;;;16.90;99.90;;;;;;5051556;28;20383;-65
2023/07/12 03:02:07;;;;;;;4.43;0.90;;;16.90;99.90;;;;;;5051198;28;20491;-64
2023/07/12 03:04:34;;;;;;;1.85;1.08;;;16.90;99.90;;;;;;5049539;28;20032;-64
2023/07/12 03:07:00;;;;;;;1.40;0.80;;;16.90;99.90;;;;;;5055365;28;20049;-64
2023/07/12 03:09:25;;;;;;;1.90;0.80;;;16.90;99.90;;;;;;5038271;28;20043;-65
2023/07/12 03:11:51;;;;;;;2.20;0.88;;;16.90;99.90;;;;;;5045314;28;20039;-64
2023/07/12 03:14:19;;;;;;;2.80;1.15;;;16.80;99.90;;;;;;5051720;28;20038;-64
2023/07/12 03:16:45;;;;;;;2.50;1.05;;;16.80;99.90;;;;;;5054107;28;20042;-64
2023/07/12 03:19:12;;;;;;;3.20;0.95;;;16.80;99.90;;;;;;5035422;28;20041;-64
2023/07/12 03:21:38;;;;;;;4.35;1.42;;;16.80;99.90;;;;;;5066974;28;20044;-64
2023/07/12 03:24:05;;;;;;;2.42;1.55;;;16.80;99.90;;;;;;5062647;28;20086;-64
2023/07/12 03:26:31;;;;;;;4.57;1.45;;;16.80;99.90;;;;;;5068927;28;20097;-64
2023/07/12 03:28:58;;;;;;;3.00;1.10;;;16.80;99.90;;;;;;5069638;28;20391;-64
2023/07/12 03:31:25;;;;;;;2.75;1.27;;;16.80;99.90;;;;;;5087537;28;20043;-64
2023/07/12 03:33:51;;;;;;;4.25;1.25;;;16.80;99.90;;;;;;5051762;28;20465;-64
2023/07/12 03:36:19;;;;;;;5.75;1.20;;;16.90;99.90;;;;;;5088562;28;20373;-64
2023/07/12 03:38:46;;;;;;;3.42;1.13;;;16.90;99.90;;;;;;5090860;28;20047;-65
2023/07/12 03:41:15;;;;;;;9.95;2.15;;;16.90;99.90;;;;;;5073456;28;20097;-65
2023/07/12 03:43:41;;;;;;;2.90;1.00;;;16.90;99.90;;;;;;5073407;28;20062;-65
2023/07/12 03:46:07;;;;;;;5.38;1.60;;;16.90;99.90;;;;;;5056263;28;20472;-64
2023/07/12 03:48:33;;;;;;;3.78;0.98;;;16.90;99.90;;;;;;5072250;28;20119;-64
2023/07/12 03:50:59;;;;;;;1.83;1.02;;;16.90;99.90;;;;;;5091658;28;20032;-64
2023/07/12 03:53:27;;;;;;;1.45;0.60;;;16.90;99.90;;;;;;5055709;28;20055;-64
2023/07/12 03:55:55;;;;;;;3.63;0.85;;;16.90;99.90;;;;;;5073081;28;20035;-64
2023/07/12 03:58:27;;;;;;;3.20;0.98;;;16.90;99.90;;;;;;5072156;28;20048;-64
2023/07/12 04:00:52;;;;;;;2.13;1.30;;;16.90;99.90;;;;;;5062010;28;20072;-64
2023/07/12 04:03:19;;;;;;;2.50;1.50;;;16.90;99.90;;;;;;5062745;28;20059;-64
2023/07/12 04:05:49;;;;;;;2.20;0.80;;;17.00;99.90;;;;;;5062596;28;20464;-64
2023/07/12 04:08:15;;;;;;;1.77;0.85;;;17.00;99.90;;;;;;5070624;28;20059;-64
2023/07/12 04:10:41;;;;;;;2.40;1.02;;;17.00;99.90;;;;;;5090933;28;20131;-64
2023/07/12 04:13:07;;;;;;;2.65;1.10;;;17.00;99.90;;;;;;5072892;28;20131;-64
2023/07/12 04:15:34;;;;;;;2.97;1.63;;;17.00;99.90;;;;;;5071898;28;20648;-65
2023/07/12 04:18:00;;;;;;;7.40;1.50;;;17.00;99.90;;;;;;5072599;28;20594;-64
2023/07/12 04:20:25;;;;;;;2.63;1.38;;;17.00;99.90;;;;;;5072637;28;20032;-64
2023/07/12 04:22:52;;;;;;;1.88;0.93;;;17.00;99.90;;;;;;5071526;28;20082;-65
2023/07/12 04:25:19;;;;;;;5.82;1.70;;;17.00;99.90;;;;;;5071603;28;20028;-64
2023/07/12 04:27:45;;;;;;;4.10;1.25;;;17.00;99.90;;;;;;5071194;28;20044;-64
2023/07/12 04:30:13;;;;;;;2.42;0.95;;;17.00;99.90;;;;;;5071366;28;20088;-64
2023/07/12 04:32:39;;;;;;;4.07;0.90;;;17.10;99.90;;;;;;5070558;28;20169;-65
2023/07/12 04:35:05;;;;;;;3.17;1.52;;;17.10;99.90;;;;;;5070605;28;20440;-65
2023/07/12 04:37:31;;;;;;;4.55;1.40;;;17.10;99.90;;;;;;5071015;28;20109;-65
2023/07/12 04:39:57;;;;;;;1.60;0.82;;;17.10;99.90;;;;;;5087746;28;20170;-65
2023/07/12 04:42:23;;;;;;;2.30;1.05;;;17.10;99.90;;;;;;5053540;28;20119;-65
2023/07/12 04:44:49;;;;;;;2.20;1.13;;;17.10;99.90;;;;;;5069674;28;20107;-65
2023/07/12 04:47:16;;;;;;;3.80;1.05;;;17.10;99.90;;;;;;5088718;28;20642;-65
2023/07/12 04:49:43;;;;;;;1.83;1.05;;;17.10;99.90;;;;;;5051796;28;20131;-65
2023/07/12 04:52:12;;;;;;;4.00;1.15;;;17.20;99.90;;;;;;5071315;28;20040;-65
2023/07/12 04:54:42;;;;;;;3.75;1.10;;;17.20;99.90;;;;;;5070491;28;20097;-65
2023/07/12 04:57:09;;;;;;;6.72;0.98;;;17.10;99.90;;;;;;5070165;28;20476;-66
2023/07/12 04:59:36;;;;;;;3.20;1.20;;;17.10;99.90;;;;;;5088653;28;20032;-65
2023/07/12 05:02:02;;;;;;;5.05;1.27;;;17.20;99.90;;;;;;5054560;28;20044;-65
2023/07/12 05:04:28;;;;;;;2.70;0.95;;;17.20;99.90;;;;;;5067009;28;20055;-66
2023/07/12 05:06:54;;;;;;;2.42;1.15;;;17.30;99.90;;;;;;5070252;28;20036;-65
2023/07/12 05:09:20;;;;;;;6.05;1.30;;;17.30;99.90;;;;;;5087154;28;20868;-65
2023/07/12 05:11:50;;;;;;;4.50;1.38;;;17.40;99.90;;;;;;5070613;28;20121;-66
2023/07/12 05:14:16;;;;;;;2.75;1.15;;;17.50;99.90;;;;;;5069263;28;20476;-66
2023/07/12 05:16:42;;;;;;;7.47;1.42;;;17.50;99.90;;;;;;5069434;28;20082;-66
2023/07/12 05:19:08;;;;;;;5.50;1.30;;;17.50;99.90;;;;;;5069963;28;20083;-65
2023/07/12 05:21:33;;;;;;;1.30;0.65;;;17.50;99.90;;;;;;5053607;28;20032;-66
2023/07/12 05:23:59;;;;;;;4.28;1.00;;;17.40;99.90;;;;;;5070018;28;20054;-65
2023/07/12 05:26:25;;;;;;;1.67;0.98;;;17.40;99.90;;;;;;5087889;28;20039;-65
2023/07/12 05:28:52;;;;;;;7.88;1.50;;;17.40;99.90;;;;;;5070246;28;20047;-65
2023/07/12 05:31:18;;;;;;;4.90;1.23;;;17.40;99.90;;;;;;5087304;28;20040;-65
2023/07/12 05:33:46;;;;;;;2.13;0.98;;;17.40;99.90;;;;;;5070204;28;20040;-65
2023/07/12 05:36:13;;;;;;;4.82;1.23;;;17.40;99.90;;;;;;5087723;28;20047;-65
2023/07/12 05:38:38;;;;;;;5.78;1.02;;;17.50;99.90;;;;;;5051603;28;20055;-65
2023/07/12 05:41:05;;;;;;;5.40;1.55;;;17.50;99.90;;;;;;5086314;28;20127;-65
2023/07/12 05:43:31;;;;;;;4.55;1.13;;;17.60;99.90;;;;;;5068257;28;20074;-67
2023/07/12 05:45:56;;;;;;;1.98;0.88;;;17.70;99.90;;;;;;5084888;28;20093;-65
2023/07/12 05:48:23;;;;;;;4.25;1.00;;;17.80;99.90;;;;;;5069813;28;20036;-66
2023/07/12 05:50:53;;;;;;;3.30;0.90;;;17.90;99.90;;;;;;5068574;28;20039;-66
2023/07/12 05:53:19;;;;;;;;;;;17.90;99.90;;;;;;5052817;28;20047;-66
2023/07/12 05:55:45;;;;;;;1.85;0.95;;;18.00;99.90;;;;;;5069523;28;19923;-66
2023/07/12 05:58:12;;;;;;;3.78;2.13;;;18.10;99.90;;;;;;5069523;28;20059;-67
2023/07/12 06:00:39;;;;;;;7.45;2.03;;;18.20;99.90;;;;;;5065931;28;20115;-66
2023/07/12 06:03:05;;;;;;;3.28;1.58;;;18.20;99.90;;;;;;5086531;28;20507;-67
2023/07/12 06:05:32;;;;;;;6.28;1.75;;;18.30;99.90;;;;;;5068969;28;20051;-66
2023/07/12 06:07:59;;;;;;;4.13;1.15;;;18.30;99.90;;;;;;5086497;28;20144;-66
2023/07/12 06:10:25;;;;;;;4.32;1.83;;;18.30;99.90;;;;;;5068837;28;20413;-65
2023/07/12 06:12:51;;;;;;;3.97;1.50;;;18.40;99.90;;;;;;5063156;28;20036;-66
2023/07/12 06:15:18;;;;;;;2.33;1.38;;;18.40;99.90;;;;;;5062865;28;20036;-65
2023/07/12 06:17:44;;;;;;;4.70;1.70;;;18.50;99.90;;;;;;5050760;28;20083;-65
2023/07/12 06:20:10;;;;;;;1.55;0.80;;;18.70;99.90;;;;;;5083446;28;20258;-65
2023/07/12 06:22:36;;;;;;;1.67;0.90;;;18.80;99.90;;;;;;5069215;28;20101;-65
2023/07/12 06:25:03;;;;;;;2.42;1.15;;;18.90;99.90;;;;;;5069457;28;20052;-65
2023/07/12 06:27:29;;;;;;;2.10;1.42;;;19.00;99.90;;;;;;5085503;28;20036;-65
2023/07/12 06:29:56;;;;;;;7.97;1.63;;;19.10;99.90;;;;;;5067827;28;20411;-65
2023/07/12 06:32:22;;;;;;;3.25;1.10;;;19.30;99.90;;;;;;5069361;28;20426;-65
2023/07/12 06:34:47;;;;;;;4.80;1.00;;;19.40;99.90;;;;;;5065396;28;20055;-65
2023/07/12 06:37:13;;;;;;;3.75;1.00;;;19.40;99.90;;;;;;5083573;28;20044;-65
2023/07/12 06:39:39;;;;;;;2.45;0.80;;;19.30;99.90;;;;;;5065845;28;20500;-65
2023/07/12 06:42:05;;;;;;;2.45;1.23;;;19.20;99.90;;;;;;5066311;28;20048;-65
2023/07/12 06:44:31;;;;;;;1.88;0.95;;;19.10;99.90;;;;;;5085417;28;20042;-65
2023/07/12 06:46:57;;;;;;;4.10;1.23;;;19.10;99.90;;;;;;5086226;28;20043;-66
2023/07/12 06:49:23;;;;;;;3.33;1.00;;;19.30;99.90;;;;;;5066495;28;20040;-65
2023/07/12 06:51:49;;;;;;;2.50;0.93;;;19.60;99.90;;;;;;5086328;28;20718;-66
2023/07/12 06:54:15;;;;;;;2.10;0.70;;;20.00;99.90;;;;;;5069448;28;20046;-65
2023/07/12 06:56:42;;;;;;;1.42;0.85;;;20.30;99.90;;;;;;5067261;28;20075;-65
2023/07/12 06:59:09;;;;;;;1.45;0.60;;;20.40;99.90;;;;;;5067729;28;20044;-65
2023/07/12 07:01:35;;;;;;;2.83;1.27;;;20.30;99.90;;;;;;5069179;28;20067;-65
2023/07/12 07:04:01;;;;;;;1.95;1.13;;;20.10;99.90;;;;;;5068101;28;20566;-65
2023/07/12 07:06:27;;;;;;;3.35;0.88;;;20.10;99.90;;;;;;5068386;28;20041;-65
2023/07/12 07:08:53;;;;;;;4.50;1.23;;;20.20;99.90;;;;;;5051373;28;20554;-65
2023/07/12 07:11:19;;;;;;;2.15;0.68;;;20.40;99.90;;;;;;5068659;28;20122;-66
2023/07/12 07:13:45;;;;;;;2.53;1.30;;;20.40;99.90;;;;;;5085917;28;20058;-67
2023/07/12 07:16:12;;;;;;;6.25;0.98;;;20.40;99.90;;;;;;5085347;28;20043;-65
2023/07/12 07:18:38;;;;;;;1.98;0.98;;;20.40;99.90;;;;;;5067617;28;20052;-67
2023/07/12 07:21:04;;;;;;;1.70;0.90;;;20.60;99.90;;;;;;5061768;28;20059;-66
2023/07/12 07:23:30;;;;;;;3.50;1.33;;;20.70;99.90;;;;;;5067291;28;20059;-66
2023/07/12 07:26:09;;;;;;;4.22;1.27;;;20.80;99.90;;;;;;5068537;28;20121;-66
2023/07/12 07:28:36;;;;;;;9.25;1.40;;;20.60;99.90;;;;;;5049203;28;20066;-65
2023/07/12 07:31:02;;;;;;;3.13;1.02;;;20.40;99.90;;;;;;5067132;28;20038;-66
2023/07/12 07:33:28;;;;;;;1.75;0.93;;;20.40;99.90;;;;;;5085636;28;20111;-65
2023/07/12 07:35:55;;;;;;;4.15;1.08;;;20.60;99.90;;;;;;5084147;28;20781;-68
2023/07/12 07:38:31;;;;;;;1.65;1.17;;;20.60;99.90;;;;;;5066113;28;20447;-65
2023/07/12 07:40:57;;;;;;;6.00;1.15;;;20.50;99.90;;;;;;5050529;28;20044;-65
2023/07/12 07:43:23;;;;;;;1.70;1.00;;;20.40;99.90;;;;;;5086229;28;20114;-65
2023/07/12 07:45:49;;;;;;;2.00;0.80;;;20.60;99.90;;;;;;5067645;28;20040;-65
2023/07/12 07:48:15;;;;;;;4.13;1.27;;;20.80;99.90;;;;;;5086452;28;20046;-65
2023/07/12 07:50:42;;;;;;;3.47;1.45;;;21.00;99.90;;;;;;5085934;28;20051;-65
2023/07/12 07:53:11;;;;;;;2.15;0.95;;;21.10;99.90;;;;;;5085359;28;20048;-66
2023/07/12 07:55:46;;;;;;;1.60;0.80;;;21.10;99.90;;;;;;5067254;28;20032;-65
2023/07/12 07:58:12;;;;;;;6.57;1.27;;;20.90;99.90;;;;;;5085755;28;20301;-64
2023/07/12 08:00:39;;;;;;;5.20;1.20;;;20.70;99.90;;;;;;5085049;28;20045;-65
2023/07/12 08:03:06;;;;;;;2.45;1.00;;;20.50;99.90;;;;;;5051464;28;20103;-65
2023/07/12 08:05:32;;;;;;;6.05;1.08;;;20.40;99.90;;;;;;5085900;28;20033;-65
2023/07/12 08:07:59;;;;;;;4.75;1.13;;;20.40;99.90;;;;;;5068256;28;20052;-65
2023/07/12 08:10:25;;;;;;;4.40;0.73;;;20.30;99.90;;;;;;5065889;28;20075;-65
2023/07/12 08:12:52;;;;;;;2.53;1.23;;;20.20;99.90;;;;;;5050701;28;20040;-65
2023/07/12 08:15:20;;;;;;;3.58;1.35;;;20.00;99.90;;;;;;5051258;28;20040;-65
2023/07/12 08:17:47;;;;;;;0.93;0.60;;;19.80;99.90;;;;;;5067802;28;20036;-65
2023/07/12 08:20:12;;;;;;;1.67;1.13;;;19.50;99.90;;;;;;5050823;28;20096;-65
2023/07/12 08:22:38;;;;;;;4.68;1.23;;;19.40;99.90;;;;;;5067669;28;20119;-66
2023/07/12 08:25:05;;;;;;;3.70;1.55;;;19.20;99.90;;;;;;5052251;28;20080;-68
2023/07/12 08:27:31;;;;;;;2.92;1.20;;;19.10;99.90;;;;;;5068942;28;20090;-65
2023/07/12 08:30:00;;;;;;;3.55;1.33;;;18.90;99.90;;;;;;5058434;28;20475;-65
2023/07/12 08:32:29;;;;;;;;;;;18.80;99.90;;;;;;5050788;28;20064;-65
2023/07/12 08:34:56;;;;;;;1.27;0.80;;;18.70;99.90;;;;;;5048148;28;19926;-66
2023/07/12 08:37:23;;;;;;;8.55;1.15;;;18.60;99.90;;;;;;5059765;28;20033;-67
2023/07/12 08:39:49;;;;;;;1.63;0.73;;;18.50;99.90;;;;;;5047799;28;20032;-67
2023/07/12 08:42:31;;;;;;;2.63;1.05;;;18.40;99.90;;;;;;5069185;28;21798;-67
2023/07/12 08:45:00;;;;;;;1.63;0.93;;;18.40;99.90;;;;;;5063428;28;20139;-67
2023/07/12 08:47:33;;;;;;;3.22;1.25;;;18.60;99.90;;;;;;5058318;28;20074;-66
2023/07/12 08:49:59;;;;;;;1.92;1.00;;;19.00;99.90;;;;;;5065553;28;20040;-67
2023/07/12 08:52:32;;;;;;;3.05;1.30;;;19.60;99.90;;;;;;5067372;28;20377;-67
2023/07/12 08:55:00;;;;;;;1.35;0.80;;;20.30;99.90;;;;;;5034718;28;20040;-66
2023/07/12 08:57:29;;;;;;;0.87;0.70;;;20.80;99.90;;;;;;5048528;28;20041;-66
2023/07/12 09:00:07;;;;;;;1.92;0.50;;;21.20;99.90;;;;;;5045341;28;20285;-66
2023/07/12 09:02:34;;;;;;;2.35;0.80;;;21.60;99.90;;;;;;5069532;28;20041;-65
2023/07/12 09:05:13;;;;;;;1.00;0.70;;;21.70;99.90;;;;;;5062959;28;20037;-65
2023/07/12 09:07:49;;;;;;;0.55;0.40;;;21.60;99.90;;;;;;5061882;28;20067;-64
2023/07/12 09:10:29;;;;;;;2.90;1.23;;;21.70;99.90;;;;;;5060166;28;20048;-65
2023/07/12 09:12:57;;;;;;;2.55;0.70;;;21.80;99.90;;;;;;5043163;28;20103;-64
2023/07/12 09:15:48;;;;;;;1.42;0.82;;;22.10;99.90;;;;;;5051312;28;20049;-63
2023/07/12 09:18:37;;;;;;;2.45;0.68;;;22.40;99.90;;;;;;5063069;28;20047;-64
2023/07/12 09:21:15;;;;;;;1.63;0.68;;;22.60;99.90;;;;;;5059409;28;20865;-64
2023/07/12 09:23:43;;;;;;;2.30;0.70;;;22.70;99.90;;;;;;5068793;28;20051;-65
2023/07/12 09:26:20;;;;;;;3.45;0.70;;;22.70;99.90;;;;;;5070189;28;20046;-64
2023/07/12 09:28:46;;;;;;;0.55;0.55;;;22.60;99.90;;;;;;5068837;28;20049;-64
2023/07/12 09:31:14;;;;;;;0.90;0.68;;;22.60;99.90;;;;;;5069868;28;20040;-66
2023/07/12 09:33:44;;;;;;;4.53;0.90;;;22.70;99.90;;;;;;5087098;28;20108;-64
2023/07/12 09:36:16;;;;;;;1.00;0.55;;;22.70;99.90;;;;;;5054806;28;20051;-65
2023/07/12 09:38:42;;;;;;;1.98;0.70;;;22.90;99.90;;;;;;5088429;28;20090;-65
2023/07/12 09:41:10;;;;;;;1.35;0.88;;;23.10;99.90;;;;;;5071820;28;20362;-65
2023/07/12 09:43:39;;;;;;;2.38;0.95;;;23.40;99.90;;;;;;5071148;28;20032;-65
2023/07/12 09:46:33;;;;;;;1.20;0.80;;;23.30;99.90;;;;;;5054737;28;20097;-65
2023/07/12 09:49:13;;;;;;;3.38;0.82;;;23.00;99.90;;;;;;5069398;28;20048;-65
2023/07/12 09:51:48;;;;;;;0.95;0.68;;;22.80;99.90;;;;;;5088373;28;20040;-64
2023/07/12 09:54:50;;;;;;;3.63;0.93;;;22.70;99.90;;;;;;5087932;28;20052;-65
2023/07/12 09:57:25;;;;;;;2.45;0.70;;;22.50;99.90;;;;;;5066619;28;20055;-65
2023/07/12 10:00:11;;;;;;;3.47;0.90;;;22.20;99.90;;;;;;5089102;28;20036;-65
2023/07/12 10:02:37;;;;;;;1.23;0.70;;;22.10;99.90;;;;;;5069547;28;20123;-65
2023/07/12 10:05:10;;;;;;;0.75;0.30;;;22.40;99.90;;;;;;5070652;28;20154;-65
2023/07/12 10:08:15;;;;;;;1.45;0.82;;;22.70;99.90;;;;;;5088022;28;20048;-65
2023/07/12 10:10:48;;;;;;;2.13;0.80;;;23.20;99.90;;;;;;5077257;28;20143;-65
2023/07/12 10:13:26;;;;;;;1.77;0.70;;;23.70;99.90;;;;;;5071051;28;20381;-65
2023/07/12 10:15:52;;;;;;;3.40;0.85;;;24.00;99.90;;;;;;5070878;28;20074;-65
2023/07/12 10:18:24;;;;;;;1.10;0.55;;;24.30;99.90;;;;;;5069587;28;20072;-66
2023/07/12 10:20:51;;;;;;;4.22;0.60;;;24.00;99.90;;;;;;5071164;28;20035;-64
2023/07/12 10:23:22;;;;;;;0.80;0.40;;;23.60;99.90;;;;;;5088277;28;20079;-65
2023/07/12 10:25:56;;;;;;;1.05;0.70;;;23.40;99.90;;;;;;5051752;28;20048;-65
2023/07/12 10:29:01;;;;;;;1.02;0.52;;;23.60;99.90;;;;;;5069696;28;20510;-65
2023/07/12 10:31:36;;;;;;;1.15;0.60;;;23.90;99.90;;;;;;5053646;28;20040;-65
2023/07/12 10:34:22;;;;;;;3.22;0.52;;;24.20;99.90;;;;;;5070334;28;20044;-65
2023/07/12 10:36:52;;;;;;;0.98;0.40;;;24.40;99.90;;;;;;5087454;28;20062;-65
2023/07/12 10:39:18;;;;;;;1.10;0.45;;;24.60;99.90;;;;;;5052817;28;20044;-65
2023/07/12 10:41:49;;;;;;;1.90;0.93;;;24.80;99.90;;;;;;5088092;28;20119;-65
2023/07/12 10:44:20;;;;;;;1.27;0.45;;;24.70;99.90;;;;;;5085239;28;20039;-66
2023/07/12 10:46:51;;;;;;;0.60;0.50;;;24.50;99.90;;;;;;5068474;28;20036;-66
2023/07/12 10:49:23;;;;;;;1.50;0.40;;;24.40;99.90;;;;;;5087568;28;20048;-66
2023/07/12 10:52:05;;;;;;;2.08;0.73;;;24.30;99.90;;;;;;5053204;28;20587;-66
2023/07/12 10:54:30;;;;;;;2.20;0.70;;;24.20;99.90;;;;;;5086680;28;20052;-66
2023/07/12 10:57:05;;;;;;;1.70;1.08;;;24.20;99.90;;;;;;5070386;28;20093;-67
2023/07/12 10:59:34;;;;;;;1.10;0.50;;;24.20;99.90;;;;;;5086028;28;20079;-67
2023/07/12 11:02:03;;;;;;;1.95;0.60;;;24.50;99.90;;;;;;5069604;28;20028;-66
2023/07/12 11:04:44;;;;;;;4.18;0.70;;;24.90;99.90;;;;;;5070304;28;20433;-66
2023/07/12 11:07:15;;;;;;;1.35;0.40;;;25.20;99.90;;;;;;5087332;28;20047;-66
2023/07/12 11:09:45;;;;;;;0.80;0.20;;;25.30;99.90;;;;;;5069337;28;20585;-66
2023/07/12 11:12:29;;;;;;;2.22;0.57;;;25.30;99.90;;;;;;5052803;28;20500;-67
2023/07/12 11:15:06;;;;;;;3.60;0.63;;;25.50;99.90;;;;;;5052286;28;20028;-67
2023/07/12 11:18:09;;;;;;;0.63;0.40;;;25.40;99.90;;;;;;5068586;28;20044;-68
2023/07/12 11:21:05;;;;;;;0.70;0.40;;;25.20;99.20;;;;;;5059810;28;20040;-66
2023/07/12 11:23:48;;;;;;;0.95;0.50;;;25.10;99.90;;;;;;5068255;28;20055;-67
2023/07/12 11:26:41;;;;;;;1.45;0.50;;;25.40;99.90;;;;;;5051892;28;20525;-66
2023/07/12 11:29:34;;;;;;;1.70;0.38;;;25.30;99.20;;;;;;5054891;28;20098;-66
2023/07/12 11:32:45;;;;;;;0.98;0.40;;;24.90;98.60;;;;;;5072231;28;20036;-68
2023/07/12 11:35:43;;;;;;;1.50;0.80;;;24.50;97.90;;;;;;5068874;28;20056;-67
2023/07/12 11:38:14;;;;;;;0.63;0.50;;;24.40;99.10;;;;;;5070888;28;20504;-68
2023/07/12 11:40:40;;;;;;;1.45;0.40;;;24.50;98.60;;;;;;5085579;28;20044;-67
2023/07/12 11:43:29;;;;;;;0.63;0.30;;;24.30;98.40;;;;;;5054612;28;20036;-66
2023/07/12 11:45:57;;;;;;;0.93;0.35;;;24.30;98.50;;;;;;5071939;28;20373;-72
2023/07/12 11:48:24;;;;;;;1.50;0.20;;;24.50;98.60;;;;;;5074779;28;20036;-71
2023/07/12 11:50:52;;;;;;;1.00;0.20;;;24.60;98.70;;;;;;5074785;28;20043;-72
2023/07/12 11:53:19;;;;;;;1.20;0.20;;;24.80;97.70;;;;;;5110054;28;20051;-73
2023/07/12 11:55:49;;;;;;;0.40;0.20;;;24.70;97.20;;;;;;5091414;28;20047;-72
2023/07/12 11:58:17;;;;;;;0.47;0.20;;;24.70;97.60;;;;;;5094175;28;20484;-73
2023/07/12 12:00:45;;;;;;;1.00;0.40;;;24.70;97.30;;;;;;5078043;28;20635;-72
2023/07/12 12:03:14;;;;;;;0.75;0.38;;;24.60;97.40;;;;;;5054691;28;20106;-72
2023/07/12 12:05:40;;;;;;;0.82;0.40;;;24.70;97.60;;;;;;5055351;28;20044;-72
2023/07/12 12:08:10;;;;;;;1.23;0.40;;;24.60;96.50;;;;;;5038838;28;20091;-73
2023/07/12 12:10:38;;;;;;;1.60;0.30;;;24.30;96.30;;;;;;5054927;28;20474;-74
2023/07/12 12:13:19;;;;;;;0.63;0.20;;;24.10;96.00;;;;;;5055532;28;20037;-73
2023/07/12 12:15:57;;;;;;;3.95;0.40;;;24.00;96.30;;;;;;5069389;28;20032;-72
2023/07/12 12:18:23;;;;;;;0.93;0.40;;;23.90;96.00;;;;;;5050188;28;20110;-73
2023/07/12 12:21:05;;;;;;;0.80;0.50;;;23.90;96.30;;;;;;5057392;28;20036;-72
2023/07/12 12:23:38;;;;;;;2.28;0.40;;;23.90;95.80;;;;;;5074852;28;20056;-72
2023/07/12 12:26:36;;;;;;;0.28;0.20;;;24.00;95.90;;;;;;5092559;28;20051;-72
2023/07/12 12:29:14;;;;;;;0.97;0.50;;;24.10;95.40;;;;;;5050141;28;20376;-72
2023/07/12 12:31:51;;;;;;;0.30;0.20;;;24.20;94.80;;;;;;5091785;28;20044;-72
2023/07/12 12:34:19;;;;;;;0.35;0.22;;;24.00;94.30;;;;;;5092817;28;20177;-72
2023/07/12 12:36:58;;;;;;;1.15;0.30;;;23.90;94.20;;;;;;5065904;28;20048;-72
2023/07/12 12:39:24;;;;;;;1.33;0.20;;;24.00;95.10;;;;;;5071948;28;20536;-73
2023/07/12 12:41:56;;;;;;;1.00;0.30;;;24.20;94.80;;;;;;5074235;28;20078;-72
2023/07/12 12:44:26;;;;;;;0.40;0.30;;;24.30;94.70;;;;;;5093090;28;20043;-72
2023/07/12 12:46:54;;;;;;;0.68;0.52;;;24.30;94.10;;;;;;5092510;28;20032;-73
2023/07/12 12:49:29;;;;;;;0.32;0.20;;;24.10;94.00;;;;;;5103632;28;20043;-72
2023/07/12 12:51:58;;;;;;;0.43;0.20;;;23.90;94.00;;;;;;5112495;28;20095;-70
2023/07/12 12:54:24;;;;;;;3.10;0.30;;;23.90;94.20;;;;;;5094799;28;20040;-72
2023/07/12 12:56:51;;;;;;;1.25;0.30;;;23.60;93.40;;;;;;5077762;28;20036;-72
2023/07/12 12:59:18;;;;;;;0.80;0.30;;;23.40;93.20;;;;;;5087298;28;20484;-72
2023/07/12 13:01:46;;;;;;;0.40;0.15;;;23.30;93.00;;;;;;5074534;28;20055;-71
2023/07/12 13:04:15;;;;;;;0.45;0.25;;;23.10;93.10;;;;;;5092601;28;20044;-71
2023/07/12 13:06:41;;;;;;;0.93;0.32;;;23.30;93.40;;;;;;5073934;28;20040;-72
2023/07/12 13:09:22;;;;;;;1.23;0.57;;;23.40;93.30;;;;;;5073692;28;20036;-72
2023/07/12 13:11:49;;;;;;;0.52;0.30;;;23.30;93.00;;;;;;5044582;28;20044;-72
2023/07/12 13:14:15;;;;;;;1.58;0.40;;;23.20;93.50;;;;;;5053274;28;20500;-72
2023/07/12 13:16:41;;;;;;;1.55;0.45;;;23.30;93.90;;;;;;5073568;28;20074;-71
2023/07/12 13:19:12;;;;;;;0.50;0.32;;;23.60;93.90;;;;;;5073623;28;20122;-72
2023/07/12 13:21:37;;;;;;;1.05;0.30;;;23.70;93.90;;;;;;5072896;28;20067;-72
2023/07/12 13:24:04;;;;;;;0.60;0.25;;;23.90;94.00;;;;;;5055446;28;20459;-72